Time;durP1;ratioP1;P1;durP2;ratioP2;P2;SDS_P1;SDS_P2;PMS_P1;PMS_P2;Temp;Humidity;BMP_temperature;BMP_pressure;BME280_temperature;BME280_humidity;BME280_pressure;Samples;Min_cycle;Max_cycle;Signal;HPM_P1;HPM_P2
2023/05/03 00:01:38;;;;;;;5.95;2.75;;;;;;;21.30;50.34;100522.13;5095599;28;20441;-67
2023/05/03 00:04:07;;;;;;;3.85;2.63;;;;;;;21.31;50.61;100517.56;5095378;28;20058;-67
2023/05/03 00:06:35;;;;;;;4.65;2.60;;;;;;;21.28;50.38;100516.00;5095268;28;20389;-66
2023/05/03 00:09:04;;;;;;;4.45;2.65;;;;;;;21.28;50.39;100521.44;5095220;28;20409;-66
2023/05/03 00:11:33;;;;;;;4.38;2.80;;;;;;;21.28;50.33;100520.59;5095164;28;20128;-66
2023/05/03 00:14:02;;;;;;;3.72;2.40;;;;;;;21.27;50.47;100514.31;5095199;28;20083;-66
2023/05/03 00:16:30;;;;;;;3.97;2.70;;;;;;;21.27;50.43;100510.75;5095225;28;20044;-66
2023/05/03 00:19:00;;;;;;;4.57;2.65;;;;;;;21.26;50.74;100514.44;5094951;28;20044;-66
2023/05/03 00:21:28;;;;;;;5.00;2.55;;;;;;;21.25;50.77;100512.72;5094968;28;20120;-66
2023/05/03 00:23:56;;;;;;;4.43;2.65;;;;;;;21.25;50.63;100510.03;5094892;28;20454;-66
2023/05/03 00:26:25;;;;;;;5.20;2.50;;;;;;;21.23;50.62;100507.47;5094823;28;20044;-66
2023/05/03 00:28:54;;;;;;;4.57;2.67;;;;;;;21.23;50.79;100499.34;5094743;28;20083;-66
2023/05/03 00:31:22;;;;;;;4.88;3.00;;;;;;;21.22;50.83;100494.03;5095026;28;20385;-65
2023/05/03 00:33:50;;;;;;;3.53;2.50;;;;;;;21.22;50.78;100494.88;5094854;28;20075;-66
2023/05/03 00:36:20;;;;;;;3.70;2.28;;;;;;;21.22;50.77;100502.16;5094746;28;20044;-66
2023/05/03 00:38:49;;;;;;;3.67;2.75;;;;;;;21.21;50.55;100506.75;5094489;28;20083;-64
2023/05/03 00:41:17;;;;;;;3.80;2.53;;;;;;;21.21;50.61;100505.91;5094806;28;20435;-66
2023/05/03 00:43:45;;;;;;;4.78;2.53;;;;;;;21.20;50.69;100515.03;5094689;28;20054;-66
2023/05/03 00:46:13;;;;;;;3.33;2.50;;;;;;;21.19;50.89;100497.06;5094554;28;20125;-64
2023/05/03 00:48:45;;;;;;;4.50;2.33;;;;;;;21.18;50.91;100501.63;5094428;28;20060;-64
2023/05/03 00:51:15;;;;;;;4.63;2.50;;;;;;;21.18;50.61;100508.94;5094378;28;20459;-65
2023/05/03 00:53:44;;;;;;;4.63;2.70;;;;;;;21.18;50.61;100506.22;5094397;28;20397;-65
2023/05/03 00:56:19;;;;;;;4.18;2.50;;;;;;;21.16;50.72;100506.38;5094585;28;20098;-65
2023/05/03 00:58:47;;;;;;;3.47;2.40;;;;;;;21.15;51.11;100500.09;5094319;28;20044;-65
2023/05/03 01:01:16;;;;;;;4.80;2.60;;;;;;;21.15;50.73;100516.38;5094350;28;20416;-65
2023/05/03 01:03:45;;;;;;;3.95;2.80;;;;;;;21.15;50.79;100520.94;5094102;28;20135;-64
2023/05/03 01:06:23;;;;;;;3.88;2.45;;;;;;;21.13;50.71;100515.69;5094078;28;20060;-65
2023/05/03 01:09:00;;;;;;;4.15;2.58;;;;;;;21.13;50.63;100521.09;5094158;28;20048;-65
2023/05/03 01:11:37;;;;;;;4.53;2.70;;;;;;;21.12;50.77;100522.09;5094117;28;20076;-64
2023/05/03 01:14:13;;;;;;;3.80;2.50;;;;;;;21.12;50.99;100530.22;5093932;28;20128;-64
2023/05/03 01:16:48;;;;;;;3.25;2.30;;;;;;;21.11;50.79;100525.81;5094923;28;20079;-66
2023/05/03 01:19:32;;;;;;;4.53;2.85;;;;;;;21.11;51.13;100527.66;5094038;28;20048;-66
2023/05/03 01:22:10;;;;;;;4.32;2.70;;;;;;;21.10;50.83;100537.66;5094034;28;20044;-66
2023/05/03 01:24:41;;;;;;;4.18;2.65;;;;;;;21.09;51.02;100525.09;5094072;28;20083;-66
2023/05/03 01:27:11;;;;;;;3.78;2.55;;;;;;;21.08;50.71;100520.69;5094066;28;20044;-66
2023/05/03 01:29:39;;;;;;;6.03;2.70;;;;;;;21.07;50.99;100532.56;5093672;28;20484;-66
2023/05/03 01:32:18;;;;;;;3.85;2.30;;;;;;;21.07;50.97;100532.56;5092783;28;20071;-66
2023/05/03 01:34:55;;;;;;;3.60;2.40;;;;;;;21.07;51.06;100529.84;5093567;28;20101;-66
2023/05/03 01:37:23;;;;;;;4.30;2.67;;;;;;;21.06;50.87;100533.56;5093553;28;20139;-66
2023/05/03 01:39:56;;;;;;;3.78;2.20;;;;;;;21.05;51.27;100537.28;5093760;28;20040;-66
2023/05/03 01:42:27;;;;;;;2.92;2.30;;;;;;;21.05;50.98;100536.44;5093603;28;20072;-66
2023/05/03 01:44:56;;;;;;;4.50;2.50;;;;;;;21.05;51.22;100531.00;5093601;28;20163;-66
2023/05/03 01:47:25;;;;;;;3.30;2.45;;;;;;;21.04;51.39;100541.00;5093400;28;20054;-66
2023/05/03 01:49:53;;;;;;;3.60;2.22;;;;;;;21.03;51.04;100531.13;5093319;28;20059;-66
2023/05/03 01:52:23;;;;;;;5.47;2.63;;;;;;;21.03;51.25;100535.72;5093005;28;20086;-66
2023/05/03 01:54:51;;;;;;;4.30;2.22;;;;;;;21.02;51.36;100529.44;5093317;28;20055;-66
2023/05/03 01:57:19;;;;;;;4.05;2.50;;;;;;;21.02;51.14;100526.72;5093188;28;20550;-66
2023/05/03 01:59:48;;;;;;;3.50;2.53;;;;;;;21.01;51.22;100527.72;5093167;28;20051;-66
2023/05/03 02:02:17;;;;;;;4.05;2.53;;;;;;;21.01;51.02;100530.44;5093063;28;20051;-66
2023/05/03 02:04:45;;;;;;;4.82;2.58;;;;;;;21.00;51.19;100531.44;5092890;28;20056;-66
2023/05/03 02:07:13;;;;;;;3.80;2.63;;;;;;;21.00;51.52;100525.19;5093135;28;20052;-66
2023/05/03 02:09:41;;;;;;;3.67;2.45;;;;;;;21.00;51.07;100519.75;5093038;28;20048;-66
2023/05/03 02:12:10;;;;;;;4.03;2.50;;;;;;;20.98;51.31;100511.78;5093105;28;20051;-66
2023/05/03 02:14:38;;;;;;;4.05;2.58;;;;;;;20.98;51.38;100517.19;5092982;28;20056;-66
2023/05/03 02:17:08;;;;;;;4.55;2.60;;;;;;;20.97;51.47;100504.66;5092748;28;20170;-65
2023/05/03 02:19:36;;;;;;;5.10;2.83;;;;;;;20.97;51.31;100499.22;5092948;28;20059;-64
2023/05/03 02:22:04;;;;;;;4.60;2.50;;;;;;;20.97;51.39;100514.66;5092879;28;20092;-65
2023/05/03 02:24:34;;;;;;;4.07;2.60;;;;;;;20.96;51.39;100512.94;5092655;28;20048;-66
2023/05/03 02:27:03;;;;;;;3.72;2.30;;;;;;;20.96;51.27;100511.09;5092629;28;20050;-66
2023/05/03 02:29:32;;;;;;;4.28;2.50;;;;;;;20.95;51.23;100508.53;5092380;28;20044;-66
2023/05/03 02:32:00;;;;;;;3.60;2.40;;;;;;;20.94;51.30;100507.69;5092754;28;20074;-66
2023/05/03 02:34:29;;;;;;;3.70;2.42;;;;;;;20.94;51.64;100510.38;5092498;28;20066;-66
2023/05/03 02:36:57;;;;;;;3.78;2.28;;;;;;;20.94;51.49;100514.94;5092652;28;20054;-66
2023/05/03 02:39:26;;;;;;;3.78;2.50;;;;;;;20.93;51.27;100505.09;5092284;28;20428;-66
2023/05/03 02:41:54;;;;;;;3.83;2.22;;;;;;;20.92;51.26;100500.69;5092421;28;20084;-66
2023/05/03 02:44:23;;;;;;;3.78;2.55;;;;;;;20.92;51.31;100509.66;5092153;28;20409;-66
2023/05/03 02:46:53;;;;;;;4.22;2.50;;;;;;;20.92;51.35;100506.09;5092466;28;20043;-66
2023/05/03 02:49:22;;;;;;;3.50;2.40;;;;;;;20.90;51.42;100500.84;5092278;28;20470;-67
2023/05/03 02:51:51;;;;;;;3.65;2.30;;;;;;;20.90;51.37;100500.84;5092388;28;20405;-66
2023/05/03 02:54:20;;;;;;;3.58;2.33;;;;;;;20.90;51.23;100505.41;5092228;28;20044;-66
2023/05/03 02:56:48;;;;;;;3.75;2.53;;;;;;;20.89;51.32;100491.00;5092117;28;20060;-66
2023/05/03 02:59:16;;;;;;;4.47;2.63;;;;;;;20.89;51.60;100491.00;5092268;28;20073;-66
2023/05/03 03:01:47;;;;;;;3.45;2.40;;;;;;;20.89;51.52;100484.72;5092398;28;20580;-66
2023/05/03 03:04:15;;;;;;;4.93;2.60;;;;;;;20.88;51.65;100492.00;5091108;28;20050;-65
2023/05/03 03:06:43;;;;;;;3.90;2.55;;;;;;;20.88;51.57;100483.88;5091846;28;20051;-66
2023/05/03 03:09:13;;;;;;;4.18;2.60;;;;;;;20.87;51.58;100479.47;5091976;28;20044;-66
2023/05/03 03:11:42;;;;;;;3.85;2.70;;;;;;;20.86;51.84;100480.47;5092127;28;20070;-66
2023/05/03 03:14:10;;;;;;;4.07;2.75;;;;;;;20.85;51.48;100486.91;5092139;28;20101;-66
2023/05/03 03:16:38;;;;;;;3.78;2.45;;;;;;;20.85;51.56;100489.63;5091875;28;20151;-66
2023/05/03 03:19:06;;;;;;;5.68;2.47;;;;;;;20.85;51.80;100492.31;5091930;28;20083;-66
2023/05/03 03:21:35;;;;;;;3.65;2.45;;;;;;;20.85;51.40;100497.75;5091757;28;20040;-66
2023/05/03 03:24:04;;;;;;;3.58;2.22;;;;;;;20.83;51.75;100492.44;5091675;28;20048;-66
2023/05/03 03:26:33;;;;;;;3.55;2.55;;;;;;;20.84;51.85;100493.31;5091872;28;20044;-66
2023/05/03 03:29:01;;;;;;;3.53;2.70;;;;;;;20.83;51.90;100502.44;5091766;28;20079;-67
2023/05/03 03:31:30;;;;;;;3.75;2.40;;;;;;;20.82;51.91;100495.31;5092159;28;20048;-66
2023/05/03 03:33:59;;;;;;;3.15;2.35;;;;;;;20.82;51.85;100498.03;5091647;28;20485;-66
2023/05/03 03:36:27;;;;;;;3.88;2.50;;;;;;;20.82;51.63;100498.03;5091590;28;20044;-66
2023/05/03 03:38:55;;;;;;;3.70;2.38;;;;;;;20.82;51.88;100503.44;5091777;28;20048;-66
2023/05/03 03:41:24;;;;;;;3.17;2.38;;;;;;;20.81;51.94;100504.47;5091564;28;20477;-66
2023/05/03 03:43:53;;;;;;;3.70;2.60;;;;;;;20.80;51.65;100498.19;5091683;28;20048;-66
2023/05/03 03:46:21;;;;;;;3.60;2.55;;;;;;;20.79;51.71;100501.91;5091602;28;20101;-66
2023/05/03 03:48:50;;;;;;;3.50;2.63;;;;;;;20.80;51.91;100502.75;5091463;28;20044;-66
2023/05/03 03:51:18;;;;;;;4.07;2.70;;;;;;;20.79;51.95;100507.31;5091412;28;20056;-65
2023/05/03 03:53:46;;;;;;;4.30;2.63;;;;;;;20.79;52.02;100506.47;5091465;28;20049;-66
2023/05/03 03:56:14;;;;;;;3.75;2.65;;;;;;;20.80;51.93;100508.19;5091490;28;20048;-66
2023/05/03 03:58:42;;;;;;;3.53;2.50;;;;;;;20.78;51.71;100508.34;5091508;28;20047;-66
2023/05/03 04:01:12;;;;;;;4.28;2.78;;;;;;;20.77;51.83;100511.19;5091536;28;20051;-66
2023/05/03 04:03:40;;;;;;;3.75;2.70;;;;;;;20.76;51.98;100512.22;5091425;28;20044;-65
2023/05/03 04:06:08;;;;;;;4.05;2.70;;;;;;;20.75;51.78;100515.91;5091209;28;20071;-65
2023/05/03 04:08:37;;;;;;;3.72;2.55;;;;;;;20.75;51.63;100519.50;5091449;28;20089;-65
2023/05/03 04:11:11;;;;;;;4.25;2.65;;;;;;;20.75;51.66;100516.78;5091310;28;20048;-66
2023/05/03 04:13:39;;;;;;;4.35;2.63;;;;;;;20.74;52.12;100523.19;5091247;28;20048;-65
2023/05/03 04:16:08;;;;;;;3.75;2.70;;;;;;;20.74;51.77;100516.91;5092693;28;20079;-66
2023/05/03 04:18:38;;;;;;;3.58;2.50;;;;;;;20.74;51.88;100522.31;5095255;28;20055;-66
2023/05/03 04:21:06;;;;;;;4.18;2.70;;;;;;;20.73;52.15;100517.91;5095148;28;20075;-65
2023/05/03 04:23:35;;;;;;;4.18;2.70;;;;;;;20.72;52.02;100527.91;5095082;28;20097;-66
2023/05/03 04:26:03;;;;;;;4.68;2.70;;;;;;;20.73;51.80;100526.03;5094910;28;20081;-66
2023/05/03 04:28:32;;;;;;;3.60;2.50;;;;;;;20.72;52.06;100527.91;5094884;28;20108;-66
2023/05/03 04:31:00;;;;;;;4.22;2.60;;;;;;;20.71;51.72;100528.06;5094705;28;20052;-65
2023/05/03 04:33:28;;;;;;;4.13;2.65;;;;;;;20.72;52.05;100524.34;5094834;28;20150;-66
2023/05/03 04:35:58;;;;;;;4.43;2.65;;;;;;;20.72;52.04;100527.06;5094850;28;20044;-65
2023/05/03 04:38:27;;;;;;;3.65;2.80;;;;;;;20.71;51.85;100533.47;5094812;28;20048;-65
2023/05/03 04:40:55;;;;;;;4.13;2.60;;;;;;;20.70;52.02;100529.06;5094674;28;20047;-65
2023/05/03 04:43:23;;;;;;;4.22;2.58;;;;;;;20.70;51.98;100535.34;5094443;28;20048;-65
2023/05/03 04:45:52;;;;;;;3.35;2.40;;;;;;;20.70;52.08;100531.78;5094815;28;20122;-65
2023/05/03 04:48:20;;;;;;;4.07;2.45;;;;;;;20.71;51.92;100541.59;5094529;28;20048;-65
2023/05/03 04:50:48;;;;;;;4.25;2.60;;;;;;;20.69;52.28;100532.78;5094503;28;20425;-65
2023/05/03 04:53:18;;;;;;;3.35;2.30;;;;;;;20.69;52.17;100539.06;5094274;28;20052;-65
2023/05/03 04:55:49;;;;;;;4.05;2.50;;;;;;;20.69;51.88;100543.63;5094060;28;20052;-67
2023/05/03 04:58:17;;;;;;;4.13;2.47;;;;;;;20.69;52.24;100544.47;5094142;28;20086;-64
2023/05/03 05:00:46;;;;;;;3.58;2.33;;;;;;;20.68;52.21;100542.78;5095994;28;20040;-66
2023/05/03 05:03:15;;;;;;;4.85;2.58;;;;;;;20.68;51.86;100552.75;5116416;28;20066;-60
2023/05/03 05:05:43;;;;;;;4.35;2.78;;;;;;;20.68;52.22;100558.19;5112115;28;20248;-65
2023/05/03 05:08:11;;;;;;;4.80;3.38;;;;;;;20.68;52.03;100558.19;5094258;28;20070;-65
2023/05/03 05:10:42;;;;;;;4.72;3.20;;;;;;;20.68;52.00;100555.47;5093926;28;20131;-65
2023/05/03 05:13:10;;;;;;;5.57;3.40;;;;;;;20.68;52.40;100552.75;5094325;28;20055;-65
2023/05/03 05:15:39;;;;;;;6.57;3.92;;;;;;;20.68;52.30;100552.75;5093758;28;20048;-65
2023/05/03 05:18:08;;;;;;;6.00;3.55;;;;;;;20.68;52.38;100547.34;5093852;28;20052;-65
2023/05/03 05:20:36;;;;;;;5.70;3.42;;;;;;;20.68;52.27;100550.06;5093639;28;20052;-65
2023/05/03 05:23:05;;;;;;;6.72;4.03;;;;;;;20.68;52.27;100552.75;5091346;28;20040;-64
2023/05/03 05:25:33;;;;;;;5.85;3.85;;;;;;;20.67;52.41;100551.91;5091438;28;20048;-64
2023/05/03 05:28:03;;;;;;;5.45;3.88;;;;;;;20.68;52.48;100552.75;5092955;28;20044;-64
2023/05/03 05:30:31;;;;;;;6.40;3.85;;;;;;;20.68;52.58;100558.19;5110311;28;20089;-64
2023/05/03 05:32:59;;;;;;;6.30;3.85;;;;;;;20.67;52.80;100551.91;5113807;28;20043;-64
2023/05/03 05:35:28;;;;;;;7.47;4.20;;;;;;;20.68;53.11;100548.19;5113816;28;20292;-64
2023/05/03 05:37:56;;;;;;;6.35;3.70;;;;;;;20.68;52.96;100547.34;5113798;28;20058;-63
2023/05/03 05:40:28;;;;;;;6.22;4.00;;;;;;;20.69;52.96;100559.88;5113789;28;20048;-66
2023/05/03 05:42:56;;;;;;;7.78;3.92;;;;;;;20.69;53.04;100577.00;5113636;28;20067;-64
2023/05/03 05:45:28;;;;;;;7.63;4.00;;;;;;;20.70;53.41;100577.84;5113307;28;20094;-65
2023/05/03 05:47:57;;;;;;;;;;;;;;;20.70;53.39;100567.00;5113886;28;20051;-65
2023/05/03 05:50:25;;;;;;;6.53;3.70;;;;;;;20.70;53.36;100561.59;5113245;28;19927;-65
2023/05/03 05:52:53;;;;;;;6.18;3.50;;;;;;;20.71;53.67;100574.13;5093487;28;20480;-64
2023/05/03 05:55:22;;;;;;;8.82;3.83;;;;;;;20.70;53.94;100583.28;5091495;28;20083;-65
2023/05/03 05:57:50;;;;;;;6.20;3.60;;;;;;;20.70;53.49;100585.97;5092778;28;20135;-61
2023/05/03 06:00:20;;;;;;;10.02;3.80;;;;;;;20.70;53.83;100594.97;5093065;28;20044;-59
2023/05/03 06:02:50;;;;;;;6.80;3.60;;;;;;;20.71;53.71;100599.38;5092768;28;20044;-59
2023/05/03 06:05:19;;;;;;;5.45;3.83;;;;;;;20.71;54.15;100593.09;5092480;28;20512;-59
2023/05/03 06:07:47;;;;;;;5.93;3.75;;;;;;;20.72;53.83;100602.94;5092669;28;20048;-59
2023/05/03 06:10:16;;;;;;;7.75;3.88;;;;;;;20.72;54.16;100608.38;5092515;28;20716;-59
2023/05/03 06:12:44;;;;;;;5.47;3.63;;;;;;;20.72;54.08;100611.06;5092301;28;20043;-60
2023/05/03 06:15:12;;;;;;;6.55;3.55;;;;;;;20.71;54.39;100621.06;5092858;28;20051;-62
2023/05/03 06:17:40;;;;;;;9.32;3.80;;;;;;;20.72;53.95;100611.94;5092269;28;20048;-63
2023/05/03 06:20:11;;;;;;;7.60;3.20;;;;;;;20.73;54.24;100615.50;5092605;28;20083;-62
2023/05/03 06:22:40;;;;;;;6.03;3.70;;;;;;;20.74;54.09;100611.78;5092207;28;20542;-63
2023/05/03 06:25:09;;;;;;;8.43;3.75;;;;;;;20.74;54.02;100617.19;5092575;28;20443;-63
2023/05/03 06:27:38;;;;;;;6.00;3.60;;;;;;;20.73;54.47;100629.03;5092198;28;20127;-63
2023/05/03 06:30:07;;;;;;;7.88;3.40;;;;;;;20.75;54.13;100624.31;5092192;28;20401;-64
2023/05/03 06:32:38;;;;;;;7.68;3.58;;;;;;;20.75;54.13;100625.22;5091746;28;20117;-64
2023/05/03 06:35:08;;;;;;;6.63;3.67;;;;;;;20.75;54.10;100629.75;5091274;28;20051;-64
2023/05/03 06:37:37;;;;;;;8.48;3.55;;;;;;;20.76;54.50;100635.03;5091924;28;20052;-63
2023/05/03 06:40:07;;;;;;;6.38;3.50;;;;;;;20.78;54.11;100637.59;5091434;28;20386;-65
2023/05/03 06:42:35;;;;;;;5.95;3.45;;;;;;;20.78;54.04;100635.75;5091927;28;20462;-65
2023/05/03 06:45:04;;;;;;;7.68;3.55;;;;;;;20.79;54.41;100636.59;5092397;28;20051;-65
2023/05/03 06:47:32;;;;;;;6.57;3.25;;;;;;;20.79;54.60;100633.88;5092217;28;20040;-65
2023/05/03 06:50:01;;;;;;;6.45;3.50;;;;;;;20.80;54.30;100638.31;5092171;28;20109;-63
2023/05/03 06:52:29;;;;;;;7.22;3.50;;;;;;;20.80;54.16;100632.88;5092012;28;20048;-64
2023/05/03 06:54:59;;;;;;;6.15;3.45;;;;;;;20.80;54.15;100641.88;5091943;28;20044;-64
2023/05/03 06:57:27;;;;;;;5.65;3.25;;;;;;;20.81;54.44;100645.44;5091541;28;20143;-64
2023/05/03 06:59:56;;;;;;;5.00;3.40;;;;;;;20.82;54.53;100636.28;5091951;28;20135;-64
2023/05/03 07:02:25;;;;;;;7.10;3.40;;;;;;;20.82;54.01;100636.28;5092044;28;20052;-64
2023/05/03 07:04:53;;;;;;;6.75;3.38;;;;;;;20.83;54.42;100629.84;5091665;28;20488;-65
2023/05/03 07:07:22;;;;;;;6.60;3.60;;;;;;;20.83;54.41;100633.41;5091784;28;20048;-65
2023/05/03 07:09:50;;;;;;;7.95;3.83;;;;;;;20.84;54.53;100628.84;5091621;28;20087;-64
2023/05/03 07:12:20;;;;;;;5.93;3.25;;;;;;;20.85;54.42;100630.59;5091874;28;20409;-63
2023/05/03 07:14:48;;;;;;;5.93;3.55;;;;;;;20.85;53.95;100631.44;5091736;28;20044;-65
2023/05/03 07:17:16;;;;;;;6.07;3.50;;;;;;;20.87;54.35;100628.56;5091620;28;20044;-65
2023/05/03 07:19:44;;;;;;;5.25;3.00;;;;;;;20.86;54.32;100627.72;5092007;28;20119;-65
2023/05/03 07:22:12;;;;;;;6.03;3.45;;;;;;;20.89;54.03;100625.72;5091603;28;20386;-64
2023/05/03 07:24:40;;;;;;;6.53;3.28;;;;;;;20.89;54.16;100626.56;5091792;28;20044;-65
2023/05/03 07:27:09;;;;;;;6.25;3.47;;;;;;;20.91;54.36;100629.13;5091730;28;20489;-65
2023/05/03 07:29:38;;;;;;;5.72;3.30;;;;;;;20.91;54.33;100627.25;5091591;28;20083;-65
2023/05/03 07:32:06;;;;;;;6.20;3.58;;;;;;;20.92;54.03;100625.41;5091478;28;20044;-64
2023/05/03 07:34:35;;;;;;;7.00;3.47;;;;;;;20.94;54.05;100629.69;5091341;28;20080;-64
2023/05/03 07:37:03;;;;;;;5.35;3.20;;;;;;;20.94;54.15;100629.69;5091268;28;20054;-65
2023/05/03 07:39:31;;;;;;;5.95;3.35;;;;;;;20.96;54.06;100633.09;5091470;28;20055;-65
2023/05/03 07:42:01;;;;;;;6.82;3.33;;;;;;;20.96;54.00;100643.94;5091617;28;20040;-63
2023/05/03 07:44:29;;;;;;;5.75;3.33;;;;;;;20.98;53.98;100643.78;5091493;28;20485;-65
2023/05/03 07:46:58;;;;;;;5.72;3.33;;;;;;;20.99;54.32;100640.94;5091543;28;20086;-64
2023/05/03 07:49:26;;;;;;;5.13;3.13;;;;;;;21.01;54.24;100643.47;5091154;28;20047;-65
2023/05/03 07:51:54;;;;;;;4.68;2.97;;;;;;;21.01;54.36;100646.19;5094697;28;20044;-64
2023/05/03 07:54:22;;;;;;;6.68;3.30;;;;;;;21.02;54.09;100643.31;5095563;28;20047;-65
2023/05/03 07:56:51;;;;;;;5.22;3.47;;;;;;;21.03;54.28;100645.03;5094829;28;20071;-65
2023/05/03 07:59:22;;;;;;;4.97;3.28;;;;;;;21.04;53.93;100645.91;5095092;28;20051;-65
2023/05/03 08:01:51;;;;;;;5.07;3.15;;;;;;;21.04;54.34;100646.78;5095022;28;20044;-64
2023/05/03 08:04:20;;;;;;;4.38;3.22;;;;;;;21.06;54.20;100650.19;5095123;28;20052;-64
2023/05/03 08:06:49;;;;;;;5.05;3.05;;;;;;;21.07;54.05;100643.75;5095201;28;20071;-65
2023/05/03 08:09:17;;;;;;;5.60;3.17;;;;;;;21.08;54.40;100641.88;5095282;28;20048;-64
2023/05/03 08:11:46;;;;;;;8.18;3.38;;;;;;;21.08;54.39;100648.16;5095120;28;20788;-64
2023/05/03 08:14:15;;;;;;;5.68;3.17;;;;;;;21.10;54.14;100648.84;5095022;28;20409;-64
2023/05/03 08:16:44;;;;;;;4.88;3.13;;;;;;;21.12;54.49;100656.84;5094734;28;20092;-64
2023/05/03 08:19:12;;;;;;;6.40;3.20;;;;;;;21.13;54.30;100659.44;5094875;28;20056;-64
2023/05/03 08:21:42;;;;;;;6.88;3.33;;;;;;;21.14;54.42;100653.00;5094914;28;20109;-64
2023/05/03 08:24:10;;;;;;;5.00;3.30;;;;;;;21.15;54.40;100654.69;5094770;28;20052;-64
2023/05/03 08:26:41;;;;;;;6.82;3.05;;;;;;;21.17;54.11;100653.69;5094654;28;20044;-65
2023/05/03 08:29:10;;;;;;;5.68;3.05;;;;;;;21.19;54.61;100654.38;5094677;28;20155;-64
2023/05/03 08:31:38;;;;;;;6.97;3.20;;;;;;;21.19;54.32;100654.38;5094840;28;20067;-64
2023/05/03 08:34:09;;;;;;;5.57;3.35;;;;;;;21.20;54.36;100658.81;5094792;28;20052;-64
2023/05/03 08:36:38;;;;;;;6.47;3.30;;;;;;;21.22;54.71;100659.50;5094545;28;20069;-64
2023/05/03 08:39:09;;;;;;;5.28;3.15;;;;;;;21.23;54.27;100655.78;5094396;28;20526;-64
2023/05/03 08:41:39;;;;;;;5.78;3.40;;;;;;;21.24;54.66;100657.53;5094498;28;20506;-64
2023/05/03 08:44:12;;;;;;;5.25;3.17;;;;;;;21.25;54.64;100649.22;5094418;28;20503;-64
2023/05/03 08:46:43;;;;;;;5.75;3.30;;;;;;;21.27;54.49;100659.94;5094568;28;20052;-64
2023/05/03 08:49:14;;;;;;;5.70;2.92;;;;;;;21.29;54.51;100660.66;5094511;28;20048;-64
2023/05/03 08:51:45;;;;;;;5.97;3.35;;;;;;;21.29;54.45;100666.06;5094197;28;20488;-64
2023/05/03 08:54:19;;;;;;;7.35;3.20;;;;;;;21.29;54.75;100661.50;5092837;28;20090;-64
2023/05/03 08:56:48;;;;;;;6.20;3.15;;;;;;;21.31;54.73;100669.47;5094583;28;20123;-64
2023/05/03 08:59:17;;;;;;;5.85;3.13;;;;;;;21.33;54.56;100664.78;5094133;28;20052;-64
2023/05/03 09:01:45;;;;;;;5.20;2.95;;;;;;;21.34;54.51;100666.50;5093412;28;20044;-64
2023/05/03 09:04:13;;;;;;;5.13;3.25;;;;;;;21.35;54.46;100665.47;5093872;28;20475;-64
2023/05/03 09:06:42;;;;;;;5.85;3.40;;;;;;;21.36;54.74;100664.47;5093899;28;20048;-64
2023/05/03 09:09:11;;;;;;;4.97;3.13;;;;;;;21.38;54.55;100666.03;5094085;28;20489;-64
2023/05/03 09:11:41;;;;;;;5.57;3.25;;;;;;;21.39;54.69;100662.28;5094070;28;20446;-63
2023/05/03 09:14:11;;;;;;;6.30;3.38;;;;;;;21.41;54.80;100667.56;5093795;28;20051;-64
2023/05/03 09:16:41;;;;;;;5.45;3.20;;;;;;;21.41;54.30;100660.28;5094099;28;20051;-64
2023/05/03 09:19:11;;;;;;;4.75;2.88;;;;;;;21.43;54.72;100652.00;5094668;28;20113;-64
2023/05/03 09:21:40;;;;;;;5.53;3.20;;;;;;;21.44;54.46;100653.72;5095638;28;20052;-64
2023/05/03 09:24:13;;;;;;;5.20;3.08;;;;;;;21.46;54.57;100656.28;5094004;28;20129;-63
2023/05/03 09:26:44;;;;;;;;;;;;;;;21.48;54.55;100659.69;5094298;28;20401;-64
2023/05/03 09:29:28;;;;;;;4.40;2.67;;;;;;;21.48;54.63;100660.53;5093559;28;19924;-64
2023/05/03 09:32:02;;;;;;;5.03;3.17;;;;;;;21.50;54.43;100661.22;5093350;28;20089;-64
2023/05/03 09:34:31;;;;;;;6.07;3.20;;;;;;;21.51;54.49;100660.22;5093454;28;20051;-63
2023/05/03 09:37:00;;;;;;;4.88;3.08;;;;;;;21.53;54.54;100655.50;5093415;28;20044;-64
2023/05/03 09:39:28;;;;;;;5.38;2.97;;;;;;;21.54;54.70;100653.66;5093039;28;20501;-64
2023/05/03 09:41:59;;;;;;;5.78;3.28;;;;;;;21.55;54.56;100656.22;5093236;28;20131;-64
2023/05/03 09:44:41;;;;;;;6.80;3.20;;;;;;;21.56;54.57;100663.34;5093161;28;20063;-64
2023/05/03 09:47:11;;;;;;;5.37;3.20;;;;;;;21.57;54.83;100659.63;5093234;28;20106;-64
2023/05/03 09:49:39;;;;;;;4.70;3.08;;;;;;;21.58;54.65;100653.19;5093200;28;20102;-64
2023/05/03 09:52:08;;;;;;;4.90;2.95;;;;;;;21.61;54.71;100660.16;5093109;28;20093;-64
2023/05/03 09:54:37;;;;;;;5.97;3.38;;;;;;;21.61;54.46;100655.56;5092819;28;20044;-63
2023/05/03 09:57:08;;;;;;;4.68;3.30;;;;;;;21.62;54.73;100654.59;5092765;28;20090;-65
2023/05/03 09:59:38;;;;;;;5.03;2.90;;;;;;;21.63;54.71;100664.44;5092950;28;20113;-65
2023/05/03 10:02:08;;;;;;;5.82;2.95;;;;;;;21.63;54.71;100659.00;5092839;28;20098;-65
2023/05/03 10:04:42;;;;;;;4.47;2.90;;;;;;;21.65;54.77;100659.72;5092658;28;20109;-64
2023/05/03 10:07:14;;;;;;;3.90;2.72;;;;;;;21.66;54.47;100658.69;5092770;28;20075;-64
2023/05/03 10:09:44;;;;;;;;;;;;;;;21.68;54.53;100650.38;5093226;28;20493;-64
2023/05/03 10:12:16;;;;;;;4.75;3.03;;;;;;;21.69;54.71;100643.94;5093118;28;19920;-64
2023/05/03 10:14:47;;;;;;;4.80;2.83;;;;;;;21.70;54.56;100654.66;5092619;28;20436;-64
2023/05/03 10:17:22;;;;;;;4.50;2.92;;;;;;;21.71;54.30;100655.50;5093050;28;20059;-63
2023/05/03 10:20:14;;;;;;;4.63;3.05;;;;;;;21.71;54.34;100661.81;5092318;28;20071;-64
2023/05/03 10:23:07;;;;;;;5.47;3.10;;;;;;;21.74;54.84;100659.78;5092649;28;20048;-64
2023/05/03 10:25:37;;;;;;;4.73;3.00;;;;;;;21.75;54.64;100656.06;5086984;28;20079;-64
2023/05/03 10:28:08;;;;;;;3.80;2.88;;;;;;;21.77;54.52;100648.63;5093110;28;20044;-65
2023/05/03 10:30:39;;;;;;;5.03;3.13;;;;;;;21.77;54.56;100654.03;5093067;28;20139;-65
2023/05/03 10:33:29;;;;;;;5.47;3.10;;;;;;;21.79;54.74;100652.03;5092471;28;20040;-65
2023/05/03 10:36:00;;;;;;;4.45;2.95;;;;;;;21.80;54.65;100651.00;5092466;28;20087;-66
2023/05/03 10:38:30;;;;;;;4.43;2.83;;;;;;;21.81;54.62;100647.28;5092281;28;20055;-65
2023/05/03 10:41:02;;;;;;;4.63;3.10;;;;;;;21.81;54.78;100645.44;5092136;28;20407;-64
2023/05/03 10:43:47;;;;;;;4.10;2.72;;;;;;;21.82;54.34;100647.16;5092287;28;20085;-63
2023/05/03 10:46:34;;;;;;;4.57;2.92;;;;;;;21.82;54.52;100641.72;5092335;28;20054;-64
2023/05/03 10:49:22;;;;;;;5.15;3.15;;;;;;;21.84;54.58;100641.56;5091903;28;20048;-64
2023/05/03 10:51:50;;;;;;;4.55;2.80;;;;;;;21.85;54.32;100637.84;5092073;28;20051;-64
2023/05/03 10:54:20;;;;;;;5.32;3.00;;;;;;;21.84;54.60;100636.13;5124138;27;20078;-64
2023/05/03 10:56:50;;;;;;;4.75;2.90;;;;;;;21.85;54.38;100635.97;5091999;28;20044;-64
2023/05/03 10:59:21;;;;;;;5.38;2.78;;;;;;;21.86;54.40;100642.25;5091826;28;20047;-65
2023/05/03 11:01:51;;;;;;;4.28;2.88;;;;;;;21.86;54.36;100640.41;5091844;28;20101;-65
2023/05/03 11:04:32;;;;;;;5.13;3.00;;;;;;;21.88;54.26;100629.38;5092209;28;20048;-65
2023/05/03 11:07:01;;;;;;;4.40;2.92;;;;;;;21.89;54.46;100636.50;5092422;28;20143;-63
2023/05/03 11:09:33;;;;;;;4.10;2.67;;;;;;;21.89;54.44;100631.91;5092884;28;20044;-64
2023/05/03 11:12:06;;;;;;;4.13;2.95;;;;;;;21.90;54.14;100636.34;5091801;28;20066;-64
2023/05/03 11:14:38;;;;;;;4.78;2.88;;;;;;;21.91;54.31;100634.50;5091800;28;20048;-64
2023/05/03 11:17:09;;;;;;;4.53;2.88;;;;;;;21.91;54.25;100629.09;5092201;28;20123;-64
2023/05/03 11:19:38;;;;;;;4.25;2.67;;;;;;;21.92;54.36;100633.50;5091563;28;20067;-64
2023/05/03 11:22:06;;;;;;;4.75;3.13;;;;;;;21.92;54.23;100625.34;5091781;28;20131;-63
2023/05/03 11:24:34;;;;;;;3.97;2.72;;;;;;;21.93;54.23;100641.47;5091529;28;20413;-64
2023/05/03 11:27:03;;;;;;;5.32;3.05;;;;;;;21.93;54.34;100633.34;5091031;28;20044;-63
2023/05/03 11:29:38;;;;;;;3.80;2.40;;;;;;;21.94;54.13;100640.47;5091626;28;20043;-64
2023/05/03 11:32:11;;;;;;;3.78;2.78;;;;;;;21.94;54.21;100631.47;5091879;28;20067;-65
2023/05/03 11:34:39;;;;;;;3.92;2.90;;;;;;;21.95;53.95;100635.88;5091749;28;20039;-63
2023/05/03 11:37:09;;;;;;;4.90;3.03;;;;;;;21.96;54.05;100632.16;5091420;28;20048;-64
2023/05/03 11:39:38;;;;;;;4.72;3.25;;;;;;;21.96;54.03;100632.16;5091417;28;20058;-65